M I D A S
Marine Information and Data Acquisition System
Tripno 642 of the Zeeleeuw from 2004-02-04 07:15:13 to 2004-02-04 13:43:02
Back to CruiseResearch ActivitiesStationsMapUnderway DataData graphs

EquipmentUnitsComments
TimeDGPSUTC
LatitudeDGPSDM.mWGS84
LongitudeDGPSDM.mWGS84
SpeedMeteo Stationm/sRelative wind speed
DirectionMeteo StationdegRelative wind direction
TemperatureMeteo Stationdeg CelciusAir temperature
PressureMeteo StationPaAtmospheric pressure
HumidityMeteo Station%Relative humidity
Missing or incorrect values are displayed as -999
Metereological data collected by the RV Zeeleeuw from 2004-02-04 07:15:13 to 2004-02-04 13:43:02
                                                                                    Next 1000 lines
Time Latitude Longitude Speed Direction Temperature Pressure Humidity
2004-02-04 07:15:18 51°13.595 2°56.108 2.6 115 12.7 102470 74
2004-02-04 07:15:24 51°13.595 2°56.108 5.5 109 12.7 102470 74
2004-02-04 07:15:29 51°13.595 2°56.108 4.5 87 12.6 102470 74
2004-02-04 07:15:34 51°13.595 2°56.108 4.1 104 12.6 102470 74
2004-02-04 07:15:38 51°13.595 2°56.108 4.2 125 12.7 102470 74
2004-02-04 07:15:44 51°13.595 2°56.108 4.8 98 12.7 102470 74
2004-02-04 07:15:49 51°13.595 2°56.108 3.1 99 12.7 102470 74
2004-02-04 07:15:54 51°13.595 2°56.108 4.4 97 12.7 102470 74
2004-02-04 07:15:59 51°13.595 2°56.108 3.7 88 12.6 102470 74
2004-02-04 07:16:04 51°13.595 2°56.108 4.5 88 12.6 102470 74
2004-02-04 07:16:09 51°13.594 2°56.108 5.1 95 12.7 102470 74
2004-02-04 07:16:14 51°13.594 2°56.108 5.1 73 12.7 102470 74
2004-02-04 07:16:18 51°13.594 2°56.108 5.5 106 12.7 102470 74
2004-02-04 07:16:24 51°13.595 2°56.108 5.4 108 12.7 102470 74
2004-02-04 07:16:29 51°13.595 2°56.107 6.8 123 12.7 102460 74
2004-02-04 07:16:34 51°13.595 2°56.105 7.2 137 12.7 102460 74
2004-02-04 07:16:40 51°13.596 2°56.102 6.6 126 12.7 102470 74
2004-02-04 07:16:44 51°13.597 2°56.099 5.6 116 12.7 102470 74
2004-02-04 07:16:49 51°13.598 2°56.094 7.6 125 12.6 102470 74
2004-02-04 07:16:55 51°13.6 2°56.088 5.9 121 12.6 102470 74
2004-02-04 07:17:00 51°13.601 2°56.082 6.7 103 12.7 102470 74
2004-02-04 07:17:05 51°13.603 2°56.076 5.5 117 12.7 102470 74
2004-02-04 07:17:10 51°13.605 2°56.07 6.6 134 12.7 102460 74
2004-02-04 07:17:15 51°13.606 2°56.063 6.7 118 12.7 102460 74
2004-02-04 07:17:20 51°13.608 2°56.056 4.8 117 12.7 102460 74
2004-02-04 07:17:25 51°13.61 2°56.048 6.8 134 12.7 102460 74
2004-02-04 07:17:30 51°13.612 2°56.041 5.1 107 12.7 102460 74
2004-02-04 07:17:34 51°13.614 2°56.035 5.1 130 12.7 102460 74
2004-02-04 07:17:40 51°13.617 2°56.025 4.4 100 12.7 102460 74
2004-02-04 07:17:45 51°13.619 2°56.018 3.9 129 12.7 102460 74
2004-02-04 07:17:50 51°13.621 2°56.01 4.2 116 12.7 102460 74
2004-02-04 07:17:54 51°13.623 2°56.004 4.1 119 12.7 102460 74
2004-02-04 07:18:00 51°13.625 2°55.994 2.8 136 12.7 102460 74
2004-02-04 07:18:05 51°13.628 2°55.986 3.7 126 12.7 102460 74
2004-02-04 07:18:10 51°13.63 2°55.978 4.6 127 12.7 102460 74
2004-02-04 07:18:14 51°13.632 2°55.972 5.4 124 12.7 102460 74
2004-02-04 07:18:20 51°13.634 2°55.963 5.4 93 12.7 102460 74
2004-02-04 07:18:25 51°13.636 2°55.956 5 126 12.7 102460 74
2004-02-04 07:18:29 51°13.637 2°55.952 3.9 123 12.7 102460 74
2004-02-04 07:18:34 51°13.638 2°55.947 5.3 107 12.7 102460 74
2004-02-04 07:18:38 51°13.638 2°55.945 5.1 105 12.7 102460 74
2004-02-04 07:18:44 51°13.639 2°55.944 3.3 107 12.7 102460 74
2004-02-04 07:18:49 51°13.639 2°55.942 2.9 119 12.7 102460 74
2004-02-04 07:18:54 51°13.64 2°55.94 4.7 109 12.7 102460 74
2004-02-04 07:18:59 51°13.64 2°55.938 5 99 12.7 102470 74
2004-02-04 07:19:04 51°13.641 2°55.934 4.1 114 12.7 102470 74
2004-02-04 07:19:09 51°13.642 2°55.93 4.2 114 12.7 102460 74
2004-02-04 07:19:14 51°13.643 2°55.926 3.3 142 12.7 102460 74
2004-02-04 07:19:20 51°13.645 2°55.92 2.7 148 12.7 102460 74
2004-02-04 07:19:25 51°13.646 2°55.915 2 110 12.7 102460 74
2004-02-04 07:19:30 51°13.648 2°55.909 2 138 12.7 102460 74
2004-02-04 07:19:34 51°13.649 2°55.904 3.9 144 12.7 102460 74
2004-02-04 07:19:40 51°13.652 2°55.897 5.9 145 12.7 102470 74
2004-02-04 07:19:45 51°13.654 2°55.891 3 113 12.7 102470 74
2004-02-04 07:19:50 51°13.657 2°55.884 5 124 12.7 102470 74
2004-02-04 07:19:55 51°13.659 2°55.878 4.6 131 12.7 102470 74
2004-02-04 07:20:00 51°13.662 2°55.871 3.7 102 12.7 102470 74
2004-02-04 07:20:05 51°13.665 2°55.864 4.3 142 12.7 102470 74
2004-02-04 07:20:09 51°13.667 2°55.859 3.6 149 12.7 102470 74
2004-02-04 07:20:14 51°13.67 2°55.852 3.5 127 12.7 102470 74
2004-02-04 07:20:20 51°13.674 2°55.844 3.6 137 12.7 102470 74
2004-02-04 07:20:25 51°13.676 2°55.839 3.1 128 12.7 102470 74
2004-02-04 07:20:30 51°13.678 2°55.836 3.9 113 12.7 102470 73
2004-02-04 07:20:34 51°13.679 2°55.835 5.5 126 12.7 102470 73
2004-02-04 07:20:39 51°13.679 2°55.836 3.7 122 12.7 102470 73
2004-02-04 07:20:44 51°13.679 2°55.837 4.5 116 12.7 102470 73
2004-02-04 07:20:49 51°13.679 2°55.839 4.2 105 12.7 102470 73
2004-02-04 07:20:54 51°13.679 2°55.84 6.6 109 12.7 102470 73
2004-02-04 07:20:58 51°13.68 2°55.84 7.2 127 12.7 102470 73
2004-02-04 07:21:04 51°13.68 2°55.839 5.3 142 12.7 102470 73
2004-02-04 07:21:09 51°13.681 2°55.838 8 227 12.7 102470 73
2004-02-04 07:21:14 51°13.681 2°55.836 5.4 136 12.7 102470 73
2004-02-04 07:21:19 51°13.682 2°55.833 6.9 135 12.7 102470 73
2004-02-04 07:21:24 51°13.683 2°55.829 5.8 145 12.7 102470 73
2004-02-04 07:21:29 51°13.683 2°55.825 3.9 150 12.7 102470 73
2004-02-04 07:21:34 51°13.683 2°55.82 4.2 133 12.7 102470 73
2004-02-04 07:21:40 51°13.683 2°55.813 4.8 143 12.7 102470 73
2004-02-04 07:21:45 51°13.683 2°55.807 4.9 162 12.7 102470 73
2004-02-04 07:21:50 51°13.682 2°55.8 3.6 153 12.7 102480 73
2004-02-04 07:21:54 51°13.682 2°55.795 5.8 148 12.7 102480 73
2004-02-04 07:22:00 51°13.68 2°55.786 5.2 158 12.7 102470 73
2004-02-04 07:22:05 51°13.679 2°55.778 5 152 12.7 102470 73
2004-02-04 07:22:10 51°13.678 2°55.77 4.5 158 12.7 102480 73
2004-02-04 07:22:15 51°13.677 2°55.763 5.6 181 12.7 102480 73
2004-02-04 07:22:20 51°13.677 2°55.758 5.7 172 12.7 102480 73
2004-02-04 07:22:24 51°13.676 2°55.756 5.9 172 12.7 102480 73
2004-02-04 07:22:28 51°13.677 2°55.755 5.2 181 12.8 102480 73
2004-02-04 07:22:34 51°13.678 2°55.755 4.3 193 12.8 102480 73
2004-02-04 07:22:38 51°13.68 2°55.757 3.7 206 12.7 102480 73
2004-02-04 07:22:44 51°13.684 2°55.759 3.2 202 12.7 102480 73
2004-02-04 07:22:49 51°13.689 2°55.761 2.4 231 12.8 102480 73
2004-02-04 07:22:54 51°13.694 2°55.761 3.3 242 12.8 102480 73
2004-02-04 07:22:59 51°13.701 2°55.76 3.6 246 12.8 102480 73
2004-02-04 07:23:04 51°13.707 2°55.758 2.3 237 12.8 102480 73
2004-02-04 07:23:09 51°13.714 2°55.754 5.3 265 12.8 102480 74
2004-02-04 07:23:14 51°13.72 2°55.749 5.1 288 12.8 102480 74
2004-02-04 07:23:19 51°13.727 2°55.743 3.6 296 12.8 102480 74
2004-02-04 07:23:24 51°13.734 2°55.737 4.4 298 12.8 102480 74
2004-02-04 07:23:29 51°13.741 2°55.731 3.8 307 12.8 102480 73
2004-02-04 07:23:34 51°13.748 2°55.724 2.8 274 12.8 102480 73
2004-02-04 07:23:39 51°13.755 2°55.716 3.3 313 12.8 102490 73
2004-02-04 07:23:44 51°13.763 2°55.709 4.9 289 12.8 102490 73
2004-02-04 07:23:49 51°13.771 2°55.701 3.3 286 12.8 102480 73
2004-02-04 07:23:54 51°13.779 2°55.692 2.2 256 12.8 102480 73
2004-02-04 07:24:00 51°13.788 2°55.682 3 262 12.8 102480 73
2004-02-04 07:24:04 51°13.794 2°55.675 2 261 12.8 102480 73
2004-02-04 07:24:09 51°13.803 2°55.665 3.5 295 12.8 102480 73
2004-02-04 07:24:14 51°13.811 2°55.656 3.5 319 12.8 102480 73
2004-02-04 07:24:18 51°13.818 2°55.649 3.3 333 12.8 102470 73
2004-02-04 07:24:24 51°13.829 2°55.638 2.6 230 12.8 102470 73
2004-02-04 07:24:29 51°13.838 2°55.629 3.2 303 12.8 102480 73
2004-02-04 07:24:34 51°13.847 2°55.621 2.4 285 12.8 102480 73
2004-02-04 07:24:38 51°13.854 2°55.615 3.7 340 12.8 102480 73
2004-02-04 07:24:44 51°13.866 2°55.605 3.2 323 12.8 102480 73
2004-02-04 07:24:49 51°13.876 2°55.598 3.9 331 12.9 102470 73
2004-02-04 07:24:54 51°13.886 2°55.59 6.1 298 12.9 102470 73
2004-02-04 07:25:00 51°13.898 2°55.581 4.5 306 12.9 102470 73
2004-02-04 07:25:04 51°13.906 2°55.575 3.4 316 12.9 102470 73
2004-02-04 07:25:09 51°13.916 2°55.568 7.4 305 12.9 102470 73
2004-02-04 07:25:14 51°13.926 2°55.561 5.1 282 12.9 102470 73
2004-02-04 07:25:19 51°13.936 2°55.553 5.3 276 12.9 102480 73
2004-02-04 07:25:24 51°13.946 2°55.546 4.9 298 12.9 102480 73
2004-02-04 07:25:29 51°13.956 2°55.539 2.9 291 12.9 102470 73
2004-02-04 07:25:34 51°13.966 2°55.532 2.5 310 12.9 102470 73
2004-02-04 07:25:39 51°13.976 2°55.525 5 293 12.9 102470 73
2004-02-04 07:25:44 51°13.986 2°55.518 4.8 301 12.9 102470 73
2004-02-04 07:25:49 51°13.996 2°55.511 5.5 308 12.9 102480 73
2004-02-04 07:25:54 51°14.007 2°55.504 5.9 306 12.9 102480 73
2004-02-04 07:25:58 51°14.015 2°55.498 5.8 270 12.9 102480 73
2004-02-04 07:26:04 51°14.028 2°55.489 3.8 292 12.9 102480 73
2004-02-04 07:26:09 51°14.038 2°55.482 2.7 248 12.9 102480 73
2004-02-04 07:26:14 51°14.049 2°55.474 2.2 304 12.9 102480 73
2004-02-04 07:26:20 51°14.061 2°55.465 3.9 317 12.9 102480 73
2004-02-04 07:26:24 51°14.07 2°55.458 4 311 12.9 102480 73
2004-02-04 07:26:29 51°14.08 2°55.45 4.6 295 12.9 102480 73
2004-02-04 07:26:34 51°14.091 2°55.442 6.1 270 12.9 102480 73
2004-02-04 07:26:39 51°14.102 2°55.434 4.6 281 12.9 102480 73
2004-02-04 07:26:44 51°14.113 2°55.425 4.4 319 12.9 102480 73
2004-02-04 07:26:49 51°14.124 2°55.415 4 302 12.9 102480 73
2004-02-04 07:26:54 51°14.136 2°55.405 3.9 322 12.9 102480 73
2004-02-04 07:26:59 51°14.147 2°55.395 3.7 309 12.9 102480 73
2004-02-04 07:27:04 51°14.159 2°55.384 4.4 265 12.9 102480 73
2004-02-04 07:27:09 51°14.171 2°55.373 4.3 306 12.9 102490 73
2004-02-04 07:27:14 51°14.182 2°55.361 5.9 321 12.9 102490 73
2004-02-04 07:27:18 51°14.192 2°55.352 5.1 321 12.9 102480 73
2004-02-04 07:27:24 51°14.205 2°55.337 4.4 348 12.9 102480 73
2004-02-04 07:27:29 51°14.217 2°55.324 5.7 343 12.9 102490 73
2004-02-04 07:27:34 51°14.228 2°55.31 6.4 304 12.9 102490 73
2004-02-04 07:27:39 51°14.239 2°55.296 6.6 316 12.9 102480 72
2004-02-04 07:27:44 51°14.25 2°55.281 4.6 325 12.9 102480 72
2004-02-04 07:27:49 51°14.262 2°55.265 7.6 319 12.9 102480 73
2004-02-04 07:27:54 51°14.273 2°55.248 6.6 325 12.9 102480 73
2004-02-04 07:28:00 51°14.285 2°55.225 7.3 327 12.9 102480 72
2004-02-04 07:28:04 51°14.294 2°55.21 9.4 324 12.9 102480 72
2004-02-04 07:28:09 51°14.305 2°55.19 9.2 309 12.9 102470 72
2004-02-04 07:28:14 51°14.316 2°55.17 9 310 12.9 102470 72
2004-02-04 07:28:19 51°14.327 2°55.149 7.5 320 12.9 102470 72
2004-02-04 07:28:24 51°14.339 2°55.129 8.8 309 12.9 102470 72
2004-02-04 07:28:29 51°14.352 2°55.11 6.8 313 12.9 102470 72
2004-02-04 07:28:34 51°14.364 2°55.09 6.9 323 12.9 102470 72
2004-02-04 07:28:39 51°14.376 2°55.07 9.8 313 12.9 102470 72
2004-02-04 07:28:44 51°14.388 2°55.05 7.8 306 12.9 102470 72
2004-02-04 07:28:49 51°14.401 2°55.03 7.9 309 12.9 102470 72
2004-02-04 07:28:54 51°14.415 2°55.012 7.8 290 12.9 102470 72
2004-02-04 07:28:59 51°14.43 2°54.995 8.3 289 12.9 102460 72
2004-02-04 07:29:04 51°14.445 2°54.979 7.9 294 12.9 102460 72
2004-02-04 07:29:09 51°14.46 2°54.965 8 291 12.9 102480 72
2004-02-04 07:29:14 51°14.476 2°54.951 7.6 288 12.9 102480 72
2004-02-04 07:29:19 51°14.491 2°54.937 7.8 286 12.9 102470 72
2004-02-04 07:29:24 51°14.506 2°54.922 7.9 285 12.9 102470 72
2004-02-04 07:29:29 51°14.521 2°54.906 8.6 291 12.9 102480 72
2004-02-04 07:29:34 51°14.535 2°54.89 9.3 289 12.9 102480 72
2004-02-04 07:29:40 51°14.552 2°54.868 8.8 295 12.9 102470 72
2004-02-04 07:29:44 51°14.563 2°54.853 8.9 299 12.9 102470 72
2004-02-04 07:29:49 51°14.576 2°54.834 9.5 294 12.9 102470 72
2004-02-04 07:29:54 51°14.589 2°54.815 10.1 294 12.9 102470 72
2004-02-04 07:29:59 51°14.602 2°54.794 9.7 292 12.9 102470 72
2004-02-04 07:30:04 51°14.614 2°54.773 8.8 295 12.9 102470 72
2004-02-04 07:30:09 51°14.626 2°54.751 9.4 302 12.9 102470 72
2004-02-04 07:30:14 51°14.637 2°54.729 12 299 12.9 102470 72
2004-02-04 07:30:19 51°14.648 2°54.706 11.6 301 12.8 102470 72
2004-02-04 07:30:24 51°14.658 2°54.681 11.7 309 12.8 102470 72
2004-02-04 07:30:29 51°14.666 2°54.656 13.1 306 12.8 102470 72
2004-02-04 07:30:34 51°14.673 2°54.63 12 314 12.8 102470 72
2004-02-04 07:30:39 51°14.679 2°54.603 12.4 314 12.8 102460 72
2004-02-04 07:30:44 51°14.683 2°54.575 10.8 329 12.8 102460 72
2004-02-04 07:30:49 51°14.686 2°54.547 11 339 12.8 102470 72
2004-02-04 07:30:54 51°14.688 2°54.519 13.8 325 12.8 102470 72
2004-02-04 07:31:00 51°14.687 2°54.487 15.2 329 12.8 102460 72
2004-02-04 07:31:04 51°14.685 2°54.467 15.6 329 12.8 102460 72
2004-02-04 07:31:09 51°14.682 2°54.443 14.8 331 12.8 102440 72
2004-02-04 07:31:14 51°14.679 2°54.422 13.5 334 12.8 102440 72
2004-02-04 07:31:18 51°14.675 2°54.407 13.9 338 12.8 102440 72
2004-02-04 07:31:24 51°14.67 2°54.386 13.3 337 12.8 102440 72
2004-02-04 07:31:29 51°14.665 2°54.371 14 342 12.8 102420 72
2004-02-04 07:31:34 51°14.66 2°54.357 12.6 346 12.8 102420 72
2004-02-04 07:31:39 51°14.655 2°54.344 11.9 344 12.7 102410 72
2004-02-04 07:31:44 51°14.649 2°54.333 11.8 347 12.7 102410 72
2004-02-04 07:31:49 51°14.644 2°54.322 12.2 345 12.7 102420 72
2004-02-04 07:31:54 51°14.639 2°54.312 12.4 349 12.7 102420 72
2004-02-04 07:32:00 51°14.633 2°54.302 12.2 349 12.7 102420 72
2004-02-04 07:32:04 51°14.629 2°54.295 11.9 354 12.7 102420 72
2004-02-04 07:32:09 51°14.625 2°54.288 11.1 356 12.7 102430 72
2004-02-04 07:32:14 51°14.62 2°54.281 10.8 352 12.7 102430 72
2004-02-04 07:32:19 51°14.615 2°54.275 10 352 12.7 102420 72
2004-02-04 07:32:24 51°14.611 2°54.269 12.4 351 12.7 102420 72
2004-02-04 07:32:29 51°14.607 2°54.263 11.6 352 12.7 102420 72
2004-02-04 07:32:34 51°14.602 2°54.258 10.8 353 12.7 102420 72
2004-02-04 07:32:40 51°14.598 2°54.252 10.3 352 12.7 102430 72
2004-02-04 07:32:44 51°14.594 2°54.248 10.7 2 12.7 102430 72
2004-02-04 07:32:48 51°14.591 2°54.244 11.6 5 12.6 102430 73
2004-02-04 07:32:54 51°14.587 2°54.239 11.2   12.6 102430 73
2004-02-04 07:32:58 51°14.584 2°54.235 10.8 359 12.6 102440 73
2004-02-04 07:33:04 51°14.58 2°54.231 9.9 1 12.6 102440 73
2004-02-04 07:33:09 51°14.577 2°54.227 10.2 1 12.6 102440 73
2004-02-04 07:33:14 51°14.574 2°54.223 9.9 359 12.6 102440 73
2004-02-04 07:33:19 51°14.57 2°54.22 10.1 357 12.6 102430 73
2004-02-04 07:33:24 51°14.567 2°54.216 9.6   12.6 102430 73
2004-02-04 07:33:29 51°14.564 2°54.213 9 359 12.6 102430 73
2004-02-04 07:33:34 51°14.561 2°54.21 8.9 2 12.6 102430 73
2004-02-04 07:33:40 51°14.558 2°54.207 10.7 359 12.6 102440 73
2004-02-04 07:33:44 51°14.556 2°54.205 9.6 2 12.6 102440 73
2004-02-04 07:33:49 51°14.554 2°54.202 10.2 7 12.6 102440 73
2004-02-04 07:33:54 51°14.551 2°54.199 10.4 5 12.6 102440 73
2004-02-04 07:33:59 51°14.549 2°54.197 9.2 354 12.6 102440 73
2004-02-04 07:34:04 51°14.547 2°54.194 8.1 356 12.6 102440 73
2004-02-04 07:34:09 51°14.545 2°54.192 9 359 12.6 102440 73
2004-02-04 07:34:14 51°14.543 2°54.19 8.7 357 12.6 102440 73
2004-02-04 07:34:20 51°14.541 2°54.187 7.9 359 12.6 102450 73
2004-02-04 07:34:24 51°14.539 2°54.185 9.7 4 12.6 102450 73
2004-02-04 07:34:29 51°14.538 2°54.183 9 1 12.6 102450 73
2004-02-04 07:34:34 51°14.535 2°54.18 10.1 358 12.6 102450 73
2004-02-04 07:34:39 51°14.532 2°54.176 10.2 357 12.5 102440 73
2004-02-04 07:34:44 51°14.529 2°54.171 10 353 12.5 102440 73
2004-02-04 07:34:49 51°14.524 2°54.164 11.7 349 12.5 102450 73
2004-02-04 07:34:54 51°14.52 2°54.156 11.2 335 12.5 102450 73
2004-02-04 07:35:00 51°14.515 2°54.144 11.3 333 12.5 102450 73
2004-02-04 07:35:04 51°14.512 2°54.135 12.6 340 12.5 102450 73
2004-02-04 07:35:09 51°14.507 2°54.122 12.6 342 12.5 102440 73
2004-02-04 07:35:14 51°14.501 2°54.107 11.8 341 12.5 102440 73
2004-02-04 07:35:20 51°14.493 2°54.087 12.6 342 12.5 102440 73
2004-02-04 07:35:24 51°14.488 2°54.073 13.1 342 12.5 102440 73
2004-02-04 07:35:29 51°14.48 2°54.053 14.5 341 12.5 102420 73
2004-02-04 07:35:34 51°14.472 2°54.033 16.5 343 12.5 102420 73
2004-02-04 07:35:40 51°14.463 2°54.007 16.6 342 12.5 102410 73
2004-02-04 07:35:44 51°14.456 2°53.989 14.8 345 12.5 102410 73
2004-02-04 07:35:48 51°14.449 2°53.97 14.7 345 12.5 102410 73
2004-02-04 07:35:54 51°14.438 2°53.941 13.7 341 12.5 102410 73
2004-02-04 07:35:59 51°14.429 2°53.916 14.5 345 12.5 102410 73
2004-02-04 07:36:04 51°14.42 2°53.891 14.3 346 12.5 102410 73
2004-02-04 07:36:09 51°14.41 2°53.866 13.6 344 12.5 102400 73
2004-02-04 07:36:14 51°14.401 2°53.84 15.6 348 12.5 102400 73
2004-02-04 07:36:19 51°14.391 2°53.814 14.9 345 12.5 102410 73
2004-02-04 07:36:24 51°14.382 2°53.788 15.6 345 12.5 102410 73
2004-02-04 07:36:28 51°14.374 2°53.767 15.5 343 12.4 102410 73
2004-02-04 07:36:34 51°14.363 2°53.736 15.7 345 12.4 102410 73
2004-02-04 07:36:38 51°14.355 2°53.715 15 348 12.4 102410 74
2004-02-04 07:36:44 51°14.343 2°53.683 15.6 346 12.4 102410 74
2004-02-04 07:36:49 51°14.333 2°53.657 14.7 345 12.4 102410 74
2004-02-04 07:36:54 51°14.323 2°53.631 16.2 348 12.4 102410 74
2004-02-04 07:37:00 51°14.31 2°53.6 14.4 350 12.4 102410 73
2004-02-04 07:37:04 51°14.301 2°53.58 15.3 346 12.4 102410 73
2004-02-04 07:37:09 51°14.29 2°53.554 14.3 346 12.4 102420 74
2004-02-04 07:37:14 51°14.279 2°53.528 15.3 345 12.4 102420 74
2004-02-04 07:37:18 51°14.27 2°53.508 15.9 346 12.4 102410 74
2004-02-04 07:37:24 51°14.257 2°53.477 14.2 346 12.4 102410 74
2004-02-04 07:37:29 51°14.246 2°53.451 15.2 347 12.4 102410 73
2004-02-04 07:37:34 51°14.236 2°53.425 15.6 345 12.4 102410 73
2004-02-04 07:37:38 51°14.227 2°53.404 15.4 344 12.4 102410 73
2004-02-04 07:37:44 51°14.215 2°53.372 14.3 343 12.4 102410 73
2004-02-04 07:37:50 51°14.202 2°53.34 14.2 341 12.4 102430 73
2004-02-04 07:37:54 51°14.194 2°53.319 14.4 346 12.4 102430 73
2004-02-04 07:37:59 51°14.184 2°53.292 14.8 349 12.4 102370 74
2004-02-04 07:38:04 51°14.173 2°53.265 15.2 347 12.4 102370 74
2004-02-04 07:38:09 51°14.163 2°53.238 14 347 12.4 102410 74
2004-02-04 07:38:14 51°14.153 2°53.212 15.8 346 12.4 102410 74
2004-02-04 07:38:20 51°14.14 2°53.18 15.4 345 12.4 102410 74
2004-02-04 07:38:24 51°14.132 2°53.158 14.8 345 12.4 102410 74
2004-02-04 07:38:29 51°14.122 2°53.132 14.2 347 12.4 102410 74
2004-02-04 07:38:34 51°14.111 2°53.105 14 346 12.4 102410 74
2004-02-04 07:38:38 51°14.103 2°53.083 14 347 12.3 102410 74
2004-02-04 07:38:44 51°14.091 2°53.051 14.6 347 12.3 102410 74
2004-02-04 07:38:48 51°14.082 2°53.03 14.1 347 12.3 102410 74
2004-02-04 07:38:54 51°14.07 2°52.998 14.1 348 12.3 102410 74
2004-02-04 07:38:59 51°14.06 2°52.971 14.7 347 12.3 102410 74
2004-02-04 07:39:04 51°14.049 2°52.944 13.6 349 12.3 102410 74
2004-02-04 07:39:08 51°14.041 2°52.923 13.9 348 12.3 102450 74
2004-02-04 07:39:14 51°14.029 2°52.89 14.8 348 12.3 102450 74
2004-02-04 07:39:19 51°14.019 2°52.864 14 343 12.3 102420 74
2004-02-04 07:39:24 51°14.008 2°52.837 14.8 345 12.3 102420 74
2004-02-04 07:39:30 51°13.996 2°52.804 13.2 345 12.3 102420 74
2004-02-04 07:39:34 51°13.988 2°52.783 13.8 346 12.3 102420 74
2004-02-04 07:39:39 51°13.978 2°52.756 13.9 346 12.2 102410 74
2004-02-04 07:39:44 51°13.968 2°52.729 14 349 12.2 102410 74
2004-02-04 07:39:48 51°13.959 2°52.708 13.3 346 12.2 102460 74
2004-02-04 07:39:54 51°13.947 2°52.676 13.3 346 12.2 102460 74
2004-02-04 07:39:59 51°13.937 2°52.649 13.7 345 12.2 102460 74
2004-02-04 07:40:04 51°13.926 2°52.623 13.4 348 12.2 102460 74
2004-02-04 07:40:10 51°13.914 2°52.591 14.4 350 12.2 102470 74
2004-02-04 07:40:14 51°13.906 2°52.569 14.6 345 12.2 102470 74
2004-02-04 07:40:19 51°13.895 2°52.543 14 345 12.2 102480 75
2004-02-04 07:40:24 51°13.885 2°52.515 14.3 345 12.2 102480 75
2004-02-04 07:40:28 51°13.877 2°52.494 14.1 351 12.2 102460 75
2004-02-04 07:40:34 51°13.865 2°52.462 14.3 344 12.2 102460 75
2004-02-04 07:40:39 51°13.854 2°52.435 13.9 346 12.1 102410 75
2004-02-04 07:40:44 51°13.844 2°52.408 14.2 346 12.1 102410 75
2004-02-04 07:40:50 51°13.832 2°52.376 13.8 346 12.1 102410 75
2004-02-04 07:40:54 51°13.823 2°52.355 14.2 347 12.1 102410 75
2004-02-04 07:40:59 51°13.813 2°52.328 14.3 347 12.2 102420 75
2004-02-04 07:41:04 51°13.802 2°52.301 13.9 346 12.2 102420 75
2004-02-04 07:41:10 51°13.79 2°52.269 13.4 348 12.2 102420 75
2004-02-04 07:41:14 51°13.782 2°52.247 13.5 348 12.2 102420 75
2004-02-04 07:41:20 51°13.769 2°52.215 14.2 348 12.1 102420 75
2004-02-04 07:41:24 51°13.761 2°52.193 14.8 345 12.1 102420 75
2004-02-04 07:41:29 51°13.751 2°52.166 14.9 348 12.1 102420 75
2004-02-04 07:41:34 51°13.74 2°52.14 13.9 346 12.1 102420 75
2004-02-04 07:41:39 51°13.73 2°52.114 13.3 345 12.1 102420 75
2004-02-04 07:41:44 51°13.72 2°52.087 14.4 346 12.1 102420 75
2004-02-04 07:41:49 51°13.71 2°52.06 13.4 349 12.1 102420 75
2004-02-04 07:41:54 51°13.699 2°52.033 13.8 348 12.1 102420 75
2004-02-04 07:41:58 51°13.691 2°52.012 13.1 347 12.1 102430 75
2004-02-04 07:42:04 51°13.679 2°51.979 13.8 350 12.1 102430 75
2004-02-04 07:42:09 51°13.669 2°51.952 13.1 348 12.1 102430 75
2004-02-04 07:42:14 51°13.658 2°51.926 13.6 348 12.1 102430 75
2004-02-04 07:42:20 51°13.646 2°51.894 13.7 349 12.1 102430 75
2004-02-04 07:42:24 51°13.638 2°51.872 15.1 346 12.1 102430 75
2004-02-04 07:42:29 51°13.627 2°51.845 13.8 347 12.1 102440 75
2004-02-04 07:42:34 51°13.617 2°51.819 14.7 350 12.1 102440 75
2004-02-04 07:42:39 51°13.607 2°51.791 13.4 349 12 102440 75
2004-02-04 07:42:44 51°13.597 2°51.765 13.4 348 12 102440 75
2004-02-04 07:42:49 51°13.586 2°51.738 13.4 347 12 102440 75
2004-02-04 07:42:54 51°13.576 2°51.711 14 349 12 102440 75
2004-02-04 07:43:00 51°13.563 2°51.679 14.8 348 12 102430 75
2004-02-04 07:43:04 51°13.555 2°51.657 14.7 349 12 102430 75
2004-02-04 07:43:09 51°13.545 2°51.63 14 353 12 102440 75
2004-02-04 07:43:14 51°13.535 2°51.603 13.7 348 12 102440 75
2004-02-04 07:43:18 51°13.527 2°51.582 13.1 352 12 102440 75
2004-02-04 07:43:24 51°13.515 2°51.549 14.5 349 12 102440 75
2004-02-04 07:43:28 51°13.507 2°51.527 15.6 348 12 102440 75
2004-02-04 07:43:34 51°13.495 2°51.494 14.3 350 12 102440 75
2004-02-04 07:43:39 51°13.486 2°51.467 15.4 351 12 102430 75
2004-02-04 07:43:44 51°13.476 2°51.44 14.5 348 12 102430 75
2004-02-04 07:43:49 51°13.466 2°51.413 14.9 348 11.9 102440 75
2004-02-04 07:43:54 51°13.455 2°51.386 15.2 348 11.9 102440 75
2004-02-04 07:43:59 51°13.445 2°51.358 15.5 347 11.9 102430 76
2004-02-04 07:44:04 51°13.435 2°51.331 14.9 348 11.9 102430 76
2004-02-04 07:44:09 51°13.425 2°51.304 13.4 345 11.9 102430 76
2004-02-04 07:44:14 51°13.415 2°51.277 13.6 351 11.9 102430 76
2004-02-04 07:44:20 51°13.404 2°51.244 14.3 350 11.9 102430 76
2004-02-04 07:44:24 51°13.396 2°51.222 14.2 348 11.9 102430 76
2004-02-04 07:44:29 51°13.386 2°51.194 14.1 347 11.9 102410 76
2004-02-04 07:44:34 51°13.377 2°51.167 14.8 348 11.9 102410 76
2004-02-04 07:44:40 51°13.365 2°51.134 16.3 347 11.9 102460 76
2004-02-04 07:44:44 51°13.357 2°51.112 14.9 351 11.9 102460 76
2004-02-04 07:44:49 51°13.347 2°51.085 16.2 347 11.9 102410 76
2004-02-04 07:44:54 51°13.336 2°51.057 14.6 348 11.9 102410 76
2004-02-04 07:44:59 51°13.326 2°51.03 16 346 11.9 102410 76
2004-02-04 07:45:04 51°13.316 2°51.003 14.7 347 11.9 102410 76
2004-02-04 07:45:09 51°13.306 2°50.976 16.5 349 11.9 102410 76
2004-02-04 07:45:14 51°13.296 2°50.948 14.2 348 11.9 102410 76
2004-02-04 07:45:19 51°13.286 2°50.921 14.9 346 11.9 102410 76
2004-02-04 07:45:24 51°13.277 2°50.893 14.6 349 11.9 102410 76
2004-02-04 07:45:29 51°13.267 2°50.866 14.8 349 11.9 102410 76
2004-02-04 07:45:34 51°13.257 2°50.838 16.5 348 11.9 102410 76
2004-02-04 07:45:38 51°13.249 2°50.817 15.7 346 11.9 102410 76
2004-02-04 07:45:44 51°13.237 2°50.784 16.1 350 11.9 102410 76
2004-02-04 07:45:49 51°13.227 2°50.757 15 350 11.9 102410 76
2004-02-04 07:45:54 51°13.217 2°50.73 15.5 346 11.9 102410 76
2004-02-04 07:46:00 51°13.205 2°50.697 15.6 349 11.9 102410 76
2004-02-04 07:46:04 51°13.197 2°50.675 15.6 350 11.9 102410 76
2004-02-04 07:46:09 51°13.187 2°50.648 16.3 348 11.9 102410 76
2004-02-04 07:46:14 51°13.177 2°50.621 15.9 350 11.9 102410 76
2004-02-04 07:46:18 51°13.169 2°50.599 15.6 347 11.9 102410 76
2004-02-04 07:46:24 51°13.157 2°50.566 15.3 349 11.9 102410 76
2004-02-04 07:46:29 51°13.147 2°50.539 14.8 349 12 102410 76
2004-02-04 07:46:34 51°13.137 2°50.511 14.4 345 12 102410 76
2004-02-04 07:46:39 51°13.128 2°50.484 15.1 348 11.9 102410 76
2004-02-04 07:46:44 51°13.118 2°50.457 16.5 348 11.9 102410 76
2004-02-04 07:46:49 51°13.108 2°50.43 15.7 350 11.9 102410 76
2004-02-04 07:46:54 51°13.098 2°50.403 16 348 11.9 102410 76
2004-02-04 07:47:00 51°13.086 2°50.37 16.2 344 11.9 102410 76
2004-02-04 07:47:04 51°13.078 2°50.348 16.8 349 11.9 102410 76
2004-02-04 07:47:08 51°13.07 2°50.326 15.2 350 11.9 102410 76
2004-02-04 07:47:14 51°13.058 2°50.294 15.6 351 11.9 102410 76
2004-02-04 07:47:18 51°13.05 2°50.272 16.2 351 11.9 102410 76
2004-02-04 07:47:24 51°13.038 2°50.239 15.6 349 11.9 102410 76
2004-02-04 07:47:29 51°13.028 2°50.212 16.9 346 11.9 102410 76
2004-02-04 07:47:34 51°13.018 2°50.185 15.3 348 11.9 102410 76
2004-02-04 07:47:40 51°13.006 2°50.152 14.6 350 11.9 102410 76
2004-02-04 07:47:44 51°12.998 2°50.13 16.9 350 11.9 102410 76
2004-02-04 07:47:49 51°12.988 2°50.104 17.3 349 12 102380 76
2004-02-04 07:47:54 51°12.978 2°50.076 15.2 346 12 102380 76
2004-02-04 07:48:00 51°12.966 2°50.044 15.7 345 12 102420 76
2004-02-04 07:48:04 51°12.958 2°50.022 15.5 347 12 102420 76
2004-02-04 07:48:09 51°12.949 2°49.995 15.7 350 12 102410 76
2004-02-04 07:48:14 51°12.939 2°49.968 15.4 344 12 102410 76
2004-02-04 07:48:20 51°12.926 2°49.936 15.2 344 12 102400 76
2004-02-04 07:48:24 51°12.918 2°49.914 17.5 348 12 102400 76
2004-02-04 07:48:29 51°12.909 2°49.887 16.2 349 12 102400 76
2004-02-04 07:48:34 51°12.899 2°49.86 17.5 343 12 102400 76
2004-02-04 07:48:39 51°12.889 2°49.833 15.4 347 12.1 102410 75
2004-02-04 07:48:44 51°12.879 2°49.806 16.2 348 12.1 102410 75
2004-02-04 07:48:49 51°12.869 2°49.779 15.9 347 12.1 102410 75
2004-02-04 07:48:54 51°12.859 2°49.751 16.5 347 12.1 102410 75
2004-02-04 07:48:58 51°12.852 2°49.73 16.1 347 12.1 102410 75
2004-02-04 07:49:04 51°12.84 2°49.697 16.6 344 12.1 102410 75
2004-02-04 07:49:09 51°12.83 2°49.67 16.5 344 12.1 102410 75
2004-02-04 07:49:14 51°12.82 2°49.643 15 347 12.1 102410 75
2004-02-04 07:49:20 51°12.808 2°49.611 17.3 350 12.1 102410 75
2004-02-04 07:49:24 51°12.8 2°49.59 16.9 346 12.1 102410 75
2004-02-04 07:49:28 51°12.792 2°49.568 17.9 345 12.1 102410 75
2004-02-04 07:49:34 51°12.781 2°49.536 16.8 348 12.1 102410 75
2004-02-04 07:49:40 51°12.769 2°49.504 16.5 347 12.1 102410 75
2004-02-04 07:49:44 51°12.761 2°49.482 16.6 346 12.1 102410 75
2004-02-04 07:49:49 51°12.751 2°49.455 16.3 343 12.1 102410 75
2004-02-04 07:49:54 51°12.741 2°49.428 16.4 348 12.1 102410 75
2004-02-04 07:49:59 51°12.732 2°49.401 16.6 351 12.1 102410 74
2004-02-04 07:50:04 51°12.722 2°49.374 18.4 346 12.1 102410 74
2004-02-04 07:50:09 51°12.712 2°49.347 18.2 345 12.2 102400 74
2004-02-04 07:50:14 51°12.702 2°49.32 18.7 345 12.2 102400 74
2004-02-04 07:50:20 51°12.69 2°49.287 18.2 344 12.2 102400 74
2004-02-04 07:50:24 51°12.683 2°49.266 16.5 343 12.2 102400 74
2004-02-04 07:50:30 51°12.671 2°49.234 17.2 347 12.2 102370 74
2004-02-04 07:50:34 51°12.663 2°49.213 16.7 349 12.2 102370 74
2004-02-04 07:50:39 51°12.653 2°49.186 16.2 347 12.2 102380 74
2004-02-04 07:50:44 51°12.643 2°49.159 16 348 12.2 102380 74
2004-02-04 07:50:48 51°12.635 2°49.137 17.2 345 12.3 102390 74
2004-02-04 07:50:54 51°12.623 2°49.105 16.2 347 12.3 102390 74
2004-02-04 07:51:00 51°12.611 2°49.073 18.1 344 12.3 102400 74
2004-02-04 07:51:04 51°12.603 2°49.051 18.1 347 12.3 102400 74
2004-02-04 07:51:09 51°12.594 2°49.024 18.3 343 12.3 102410 73
2004-02-04 07:51:14 51°12.584 2°48.997 17.5 345 12.3 102410 73
2004-02-04 07:51:19 51°12.575 2°48.97 18.6 345 12.3 102400 73
2004-02-04 07:51:24 51°12.565 2°48.944 16.8 345 12.3 102400 73
2004-02-04 07:51:29 51°12.555 2°48.917 16.6 342 12.3 102400 73
2004-02-04 07:51:34 51°12.545 2°48.89 17.5 344 12.3 102400 73
2004-02-04 07:51:38 51°12.537 2°48.869 18.4 345 12.3 102400 73
2004-02-04 07:51:44 51°12.525 2°48.837 17.3 345 12.3 102400 73
2004-02-04 07:51:49 51°12.515 2°48.81 17.9 343 12.3 102400 73
2004-02-04 07:51:54 51°12.505 2°48.783 18.3 346 12.3 102400 73
2004-02-04 07:51:58 51°12.498 2°48.762 15.7 347 12.3 102400 73
2004-02-04 07:52:04 51°12.486 2°48.729 16.1 348 12.3 102400 73
2004-02-04 07:52:09 51°12.477 2°48.702 17.3 344 12.3 102390 73
2004-02-04 07:52:14 51°12.467 2°48.675 15.9 344 12.3 102390 73
2004-02-04 07:52:19 51°12.457 2°48.649 16.7 348 12.4 102400 73
2004-02-04 07:52:24 51°12.447 2°48.622 16.6 342 12.4 102400 73
2004-02-04 07:52:29 51°12.437 2°48.595 16.5 344 12.4 102400 73
2004-02-04 07:52:34 51°12.427 2°48.569 16.9 343 12.4 102400 73
2004-02-04 07:52:40 51°12.416 2°48.536 18.3 344 12.4 102390 73
2004-02-04 07:52:44 51°12.408 2°48.515 16.7 343 12.4 102390 73
2004-02-04 07:52:49 51°12.399 2°48.488 16.6 343 12.4 102390 73
2004-02-04 07:52:54 51°12.389 2°48.461 16.1 341 12.4 102390 73
2004-02-04 07:53:00 51°12.377 2°48.428 15.8 347 12.4 102380 73
2004-02-04 07:53:04 51°12.369 2°48.407 16.5 345 12.4 102380 73
2004-02-04 07:53:09 51°12.36 2°48.38 17.3 344 12.4 102380 73
2004-02-04 07:53:14 51°12.349 2°48.353 17.3 345 12.4 102380 73
2004-02-04 07:53:20 51°12.338 2°48.321 17.8 344 12.4 102390 73
2004-02-04 07:53:24 51°12.33 2°48.299 16.3 344 12.4 102390 73
2004-02-04 07:53:29 51°12.321 2°48.272 16.1 345 12.4 102390 73
2004-02-04 07:53:34 51°12.311 2°48.245 15.8 342 12.4 102390 73
2004-02-04 07:53:38 51°12.303 2°48.223 16.8 345 12.4 102390 73
2004-02-04 07:53:44 51°12.292 2°48.191 17 343 12.4 102390 73
2004-02-04 07:53:49 51°12.282 2°48.164 16.8 344 12.4 102390 73
2004-02-04 07:53:54 51°12.273 2°48.137 16.6 344 12.4 102390 73
2004-02-04 07:54:00 51°12.261 2°48.105 17.7 346 12.5 102390 73
2004-02-04 07:54:04 51°12.253 2°48.083 17 347 12.5 102390 73
2004-02-04 07:54:09 51°12.243 2°48.057 16.1 344 12.4 102390 72
2004-02-04 07:54:14 51°12.233 2°48.03 17.3 345 12.4 102390 72
2004-02-04 07:54:19 51°12.223 2°48.003 16.8 344 12.4 102390 72
2004-02-04 07:54:24 51°12.214 2°47.976 17.4 342 12.4 102390 72
2004-02-04 07:54:29 51°12.204 2°47.949 17.4 340 12.4 102390 72
2004-02-04 07:54:34 51°12.195 2°47.922 19.1 337 12.4 102390 72
2004-02-04 07:54:40 51°12.183 2°47.89 16.4 341 12.4 102380 72
2004-02-04 07:54:44 51°12.176 2°47.868 17.4 343 12.4 102380 72
2004-02-04 07:54:49 51°12.166 2°47.841 19.3 341 12.4 102380 72
2004-02-04 07:54:54 51°12.157 2°47.814 19.4 338 12.4 102380 72
2004-02-04 07:55:00 51°12.145 2°47.782 18.4 338 12.5 102380 72
2004-02-04 07:55:04 51°12.137 2°47.761 20.1 343 12.5 102380 72
2004-02-04 07:55:10 51°12.126 2°47.729 18.9 345 12.5 102380 72
2004-02-04 07:55:14 51°12.118 2°47.707 16.1 345 12.5 102380 72
2004-02-04 07:55:19 51°12.109 2°47.681 17.6 343 12.5 102370 72
2004-02-04 07:55:24 51°12.099 2°47.653 18.1 343 12.5 102370 72
2004-02-04 07:55:29 51°12.09 2°47.626 17.2 340 12.6 102380 72
2004-02-04 07:55:34 51°12.082 2°47.598 17 341 12.6 102380 72
2004-02-04 07:55:40 51°12.071 2°47.565 17.7 339 12.6 102370 72
2004-02-04 07:55:44 51°12.064 2°47.544 18.1 342 12.6 102370 72
2004-02-04 07:55:48 51°12.057 2°47.522 17.6 343 12.6 102390 72
2004-02-04 07:55:54 51°12.047 2°47.489 18.6 342 12.6 102390 72
2004-02-04 07:55:58 51°12.04 2°47.467 19.1 340 12.6 102390 72
2004-02-04 07:56:04 51°12.029 2°47.434 17.4 342 12.6 102390 72
2004-02-04 07:56:09 51°12.021 2°47.406 17.4 343 12.7 102390 71
2004-02-04 07:56:14 51°12.012 2°47.379 17.2 338 12.7 102390 71
2004-02-04 07:56:19 51°12.003 2°47.351 16.5 341 12.7 102370 72
2004-02-04 07:56:24 51°11.994 2°47.324 17.2 338 12.7 102370 72
2004-02-04 07:56:29 51°11.986 2°47.296 17.2 339 12.7 102380 71
2004-02-04 07:56:34 51°11.977 2°47.269 16.8 336 12.7 102380 71
2004-02-04 07:56:39 51°11.969 2°47.241 16.4 340 12.7 102390 71
2004-02-04 07:56:44 51°11.96 2°47.214 16.9 337 12.7 102390 71
2004-02-04 07:56:49 51°11.951 2°47.186 17.5 337 12.7 102390 71
2004-02-04 07:56:54 51°11.943 2°47.159 16.2 337 12.7 102390 71
2004-02-04 07:57:00 51°11.932 2°47.126 16.9 341 12.7 102390 71
2004-02-04 07:57:04 51°11.925 2°47.104 17.3 341 12.7 102390 71
2004-02-04 07:57:09 51°11.916 2°47.076 16.7 332 12.7 102380 71
2004-02-04 07:57:14 51°11.908 2°47.049 16.7 342 12.7 102380 71
2004-02-04 07:57:19 51°11.899 2°47.021 17.5 340 12.7 102380 71
2004-02-04 07:57:24 51°11.891 2°46.994 18.2 341 12.7 102380 71
2004-02-04 07:57:30 51°11.88 2°46.961 16.7 343 12.6 102390 71
2004-02-04 07:57:34 51°11.874 2°46.939 17 340 12.6 102390 71
2004-02-04 07:57:39 51°11.865 2°46.911 16.1 340 12.6 102390 71
2004-02-04 07:57:44 51°11.856 2°46.884 17.1 337 12.6 102390 71
2004-02-04 07:57:48 51°11.849 2°46.862 16.9 339 12.6 102390 71
2004-02-04 07:57:54 51°11.839 2°46.829 15.8 337 12.6 102390 71
2004-02-04 07:57:59 51°11.83 2°46.801 16 342 12.6 102390 71
2004-02-04 07:58:04 51°11.821 2°46.774 16 341 12.6 102390 71
2004-02-04 07:58:10 51°11.81 2°46.741 17.3 339 12.6 102400 72
2004-02-04 07:58:14 51°11.803 2°46.719 17.3 340 12.6 102400 72
2004-02-04 07:58:19 51°11.794 2°46.692 16.9 340 12.6 102390 72
2004-02-04 07:58:24 51°11.785 2°46.665 16.4 339 12.6 102390 72
2004-02-04 07:58:28 51°11.778 2°46.643 17.8 342 12.5 102380 72
2004-02-04 07:58:34 51°11.768 2°46.61 16.8 337 12.5 102380 72
2004-02-04 07:58:39 51°11.76 2°46.582 16.6 341 12.5 102380 72
2004-02-04 07:58:44 51°11.751 2°46.555 16 340 12.5 102380 72
2004-02-04 07:58:49 51°11.742 2°46.527 17.5 338 12.5 102390 72
2004-02-04 07:58:54 51°11.734 2°46.5 17.4 339 12.5 102390 72
2004-02-04 07:59:00 51°11.724 2°46.467 15.8 340 12.5 102380 72
2004-02-04 07:59:04 51°11.717 2°46.445 15.7 337 12.5 102380 72
2004-02-04 07:59:09 51°11.708 2°46.417 15.1 339 12.5 102390 72
2004-02-04 07:59:14 51°11.7 2°46.389 16.7 339 12.5 102390 72
2004-02-04 07:59:20 51°11.69 2°46.356 16.5 340 12.5 102380 72
2004-02-04 07:59:24 51°11.683 2°46.334 16.2 342 12.5 102380 72
2004-02-04 07:59:29 51°11.674 2°46.306 16 340 12.5 102390 72
2004-02-04 07:59:34 51°11.666 2°46.278 16.4 335 12.5 102390 72
2004-02-04 07:59:38 51°11.659 2°46.256 15.3 339 12.5 102390 72
2004-02-04 07:59:44 51°11.648 2°46.223 17 343 12.5 102390 72
2004-02-04 07:59:48 51°11.642 2°46.201 16.4 340 12.5 102380 72
2004-02-04 07:59:54 51°11.631 2°46.167 16.9 337 12.5 102380 72
2004-02-04 08:00:00 51°11.621 2°46.134 17.1 334 12.5 102390 72
2004-02-04 08:00:04 51°11.614 2°46.112 15 337 12.5 102390 72
2004-02-04 08:00:09 51°11.606 2°46.084 15.6 339 12.5 102390 72
2004-02-04 08:00:14 51°11.597 2°46.056 16.5 337 12.5 102390 72
2004-02-04 08:00:20 51°11.587 2°46.023 15.7 339 12.5 102390 72
2004-02-04 08:00:24 51°11.58 2°46.001 16.2 343 12.5 102390 72
2004-02-04 08:00:30 51°11.569 2°45.968 16.7 338 12.5 102380 72
2004-02-04 08:00:34 51°11.562 2°45.946 15.5 339 12.5 102380 72
2004-02-04 08:00:39 51°11.554 2°45.918 16.6 338 12.5 102380 72
2004-02-04 08:00:44 51°11.545 2°45.89 15.6 339 12.5 102380 72
2004-02-04 08:00:50 51°11.535 2°45.857 15.8 338 12.5 102360 72
2004-02-04 08:00:54 51°11.529 2°45.834 15.9 338 12.5 102360 72
2004-02-04 08:00:59 51°11.522 2°45.806 15.9 339 12.5 102400 72
2004-02-04 08:01:04 51°11.514 2°45.777 16 336 12.5 102400 72
2004-02-04 08:01:09 51°11.507 2°45.748 15.5 335 12.5 102390 72
2004-02-04 08:01:14 51°11.499 2°45.72 16.2 336 12.5 102390 72
2004-02-04 08:01:18 51°11.494 2°45.697 14.8 337 12.5 102390 72
2004-02-04 08:01:24 51°11.485 2°45.663 15.9 337 12.5 102390 72
2004-02-04 08:01:28 51°11.479 2°45.639 16.7 329 12.5 102390 72
2004-02-04 08:01:34 51°11.471 2°45.605 15.3 337 12.5 102390 72
2004-02-04 08:01:40 51°11.462 2°45.571 16.7 338 12.5 102400 72
2004-02-04 08:01:44 51°11.456 2°45.548 15.1 337 12.5 102400 72
2004-02-04 08:01:49 51°11.448 2°45.519 15 336 12.4 102400 72
2004-02-04 08:01:54 51°11.441 2°45.491 16.1 337 12.4 102400 72
2004-02-04 08:01:58 51°11.435 2°45.468 15.6 336 12.4 102400 73
2004-02-04 08:02:04 51°11.426 2°45.434 15 336 12.4 102400 73
2004-02-04 08:02:10 51°11.417 2°45.399 16.4 333 12.4 102400 73
2004-02-04 08:02:14 51°11.411 2°45.377 16.5 334 12.4 102400 73
2004-02-04 08:02:19 51°11.404 2°45.348 16.6 336 12.5 102390 72
2004-02-04 08:02:24 51°11.397 2°45.319 15.1 333 12.5 102390 72
2004-02-04 08:02:28 51°11.391 2°45.296 15.6 333 12.4 102390 72
2004-02-04 08:02:34 51°11.382 2°45.262 16.3 331 12.4 102390 72
2004-02-04 08:02:39 51°11.375 2°45.233 15.8 336 12.4 102390 72
2004-02-04 08:02:44 51°11.367 2°45.205 14.6 335 12.4 102390 72
2004-02-04 08:02:48 51°11.362 2°45.182 14.9 335 12.5 102390 72
2004-02-04 08:02:54 51°11.353 2°45.147 15.2 335 12.5 102390 72
2004-02-04 08:02:59 51°11.346 2°45.119 16.1 336 12.5 102380 73
2004-02-04 08:03:04 51°11.338 2°45.09 15.1 336 12.5 102380 73
2004-02-04 08:03:09 51°11.331 2°45.062 14.4 333 12.5 102390 72
2004-02-04 08:03:14 51°11.324 2°45.033 16.8 333 12.5 102390 72
2004-02-04 08:03:18 51°11.319 2°45.01 15.1 334 12.5 102390 72
2004-02-04 08:03:24 51°11.31 2°44.976 15.5 332 12.5 102390 72
2004-02-04 08:03:30 51°11.301 2°44.941 15.1 334 12.5 102390 72
2004-02-04 08:03:34 51°11.295 2°44.919 15.3 332 12.5 102390 72
2004-02-04 08:03:38 51°11.289 2°44.896 14.8 332 12.5 102380 72
2004-02-04 08:03:44 51°11.281 2°44.861 15.3 332 12.5 102380 72
2004-02-04 08:03:50 51°11.272 2°44.827 15.1 335 12.5 102380 72
2004-02-04 08:03:54 51°11.266 2°44.804 15.1 331 12.5 102380 72
2004-02-04 08:04:00 51°11.257 2°44.77 15.6 333 12.5 102380 72
2004-02-04 08:04:04 51°11.252 2°44.747 14.2 333 12.5 102380 72
2004-02-04 08:04:09 51°11.244 2°44.718 14.4 334 12.5 102380 72
2004-02-04 08:04:14 51°11.237 2°44.69 15.9 332 12.5 102380 72
2004-02-04 08:04:20 51°11.228 2°44.655 14.9 332 12.5 102390 72
2004-02-04 08:04:24 51°11.222 2°44.632 14.4 334 12.5 102390 72
2004-02-04 08:04:29 51°11.215 2°44.603 14.5 331 12.5 102380 72
2004-02-04 08:04:34 51°11.208 2°44.575 14.5 332 12.5 102380 72
2004-02-04 08:04:39 51°11.2 2°44.546 14.3 332 12.5 102390 72
2004-02-04 08:04:44 51°11.193 2°44.518 15 335 12.5 102390 72
2004-02-04 08:04:49 51°11.185 2°44.489 14.6 333 12.5 102380 72
2004-02-04 08:04:54 51°11.178 2°44.46 15.6 330 12.5 102380 72
2004-02-04 08:05:00 51°11.171 2°44.425 14.7 330 12.5 102380 72
2004-02-04 08:05:04 51°11.166 2°44.402 14 331 12.5 102380 72
2004-02-04 08:05:09 51°11.16 2°44.372 14.1 332 12.5 102380 72
2004-02-04 08:05:14 51°11.154 2°44.343 14.8 328 12.5 102380 72
2004-02-04 08:05:18 51°11.15 2°44.319 14 331 12.5 102380 72
2004-02-04 08:05:24 51°11.143 2°44.283 14.2 329 12.5 102380 72
2004-02-04 08:05:28 51°11.138 2°44.26 14.5 324 12.5 102380 72
2004-02-04 08:05:34 51°11.131 2°44.224 15.4 327 12.5 102380 72
2004-02-04 08:05:40 51°11.124 2°44.189 14.1 328 12.5 102380 72
2004-02-04 08:05:44 51°11.12 2°44.165 14.8 332 12.5 102380 72
2004-02-04 08:05:48 51°11.115 2°44.141 13.5 329 12.5 102380 72
2004-02-04 08:05:54 51°11.108 2°44.106 14.4 328 12.5 102380 72
2004-02-04 08:05:59 51°11.102 2°44.076 14.8 328 12.5 102380 72
2004-02-04 08:06:04 51°11.096 2°44.047 14.8 328 12.5 102380 72
2004-02-04 08:06:09 51°11.09 2°44.017 14.9 332 12.5 102380 72
2004-02-04 08:06:14 51°11.085 2°43.988 16.9 332 12.5 102380 72
2004-02-04 08:06:20 51°11.078 2°43.952 15.6 334 12.5 102370 72
2004-02-04 08:06:24 51°11.074 2°43.929 15.7 326 12.5 102370 72
2004-02-04 08:06:29 51°11.068 2°43.899 15.6 328 12.5 102380 72
2004-02-04 08:06:34 51°11.063 2°43.869 15.5 331 12.5 102380 72
2004-02-04 08:06:40 51°11.056 2°43.834 15.4 327 12.6 102370 72
2004-02-04 08:06:44 51°11.051 2°43.81 14.6 324 12.6 102370 72
2004-02-04 08:06:49 51°11.046 2°43.781 14 328 12.6 102370 72
2004-02-04 08:06:54 51°11.04 2°43.751 15.5 333 12.6 102370 72
2004-02-04 08:06:58 51°11.035 2°43.728 15.2 330 12.6 102360 71
2004-02-04 08:07:04 51°11.028 2°43.692 15.8 330 12.6 102360 71
2004-02-04 08:07:09 51°11.023 2°43.663 15.8 331 12.7 102380 71
2004-02-04 08:07:14 51°11.017 2°43.633 14.4 325 12.7 102380 71
2004-02-04 08:07:20 51°11.01 2°43.598 15.1 334 12.7 102380 71
2004-02-04 08:07:24 51°11.006 2°43.574 15.2 333 12.7 102380 71
2004-02-04 08:07:29 51°11 2°43.545 15.4 333 12.7 102380 71
2004-02-04 08:07:34 51°10.995 2°43.515 15.7 331 12.7 102380 71
2004-02-04 08:07:39 51°10.989 2°43.486 14.7 331 12.7 102370 70
2004-02-04 08:07:44 51°10.982 2°43.457 13.8 336 12.7 102370 70
2004-02-04 08:07:49 51°10.976 2°43.428 15 329 12.7 102380 70
2004-02-04 08:07:54 51°10.97 2°43.398 16.1 331 12.7 102380 70
2004-02-04 08:08:00 51°10.963 2°43.363 14.7 330 12.7 102380 71
2004-02-04 08:08:04 51°10.959 2°43.339 16.3 326 12.7 102380 71
2004-02-04 08:08:08 51°10.955 2°43.316 16.6 329 12.6 102380 70
2004-02-04 08:08:14 51°10.948 2°43.28 15.6 331 12.6 102380 70
2004-02-04 08:08:19 51°10.942 2°43.25 15.9 329 12.7 102380 70
2004-02-04 08:08:24 51°10.937 2°43.221 16.5 332 12.7 102380 70
2004-02-04 08:08:29 51°10.931 2°43.191 15.6 329 12.7 102370 70
2004-02-04 08:08:34 51°10.925 2°43.162 15.9 329 12.7 102370 70
2004-02-04 08:08:40 51°10.919 2°43.126 15.9 331 12.6 102390 70
2004-02-04 08:08:44 51°10.914 2°43.103 16.5 331 12.6 102390 70
2004-02-04 08:08:49 51°10.909 2°43.073 15.6 328 12.7 102390 70
2004-02-04 08:08:54 51°10.903 2°43.044 17.2 327 12.7 102390 70
2004-02-04 08:09:00 51°10.896 2°43.008 15.7 329 12.7 102380 71
2004-02-04 08:09:04 51°10.892 2°42.984 14.4 330 12.7 102380 71
2004-02-04 08:09:09 51°10.886 2°42.954 15.5 330 12.6 102380 71
2004-02-04 08:09:14 51°10.881 2°42.925 16.6 332 12.6 102380 71
2004-02-04 08:09:18 51°10.876 2°42.901 14.8 328 12.6 102380 71
2004-02-04 08:09:24 51°10.87 2°42.865 13.9 326 12.6 102380 71
2004-02-04 08:09:29 51°10.864 2°42.836 14.5 331 12.6 102390 71
2004-02-04 08:09:34 51°10.859 2°42.806 15.6 332 12.6 102390 71
2004-02-04 08:09:39 51°10.853 2°42.776 16.4 332 12.6 102390 71
2004-02-04 08:09:44 51°10.848 2°42.746 15.5 333 12.6 102390 71
2004-02-04 08:09:49 51°10.842 2°42.717 15.2 334 12.6 102390 71
2004-02-04 08:09:54 51°10.837 2°42.687 15.5 329 12.6 102390 71
2004-02-04 08:10:00 51°10.83 2°42.651 14.9 333 12.5 102390 71
2004-02-04 08:10:04 51°10.826 2°42.627 14.8 334 12.5 102390 71
2004-02-04 08:10:09 51°10.82 2°42.598 14.2 333 12.6 102400 71
2004-02-04 08:10:14 51°10.815 2°42.568 15.7 332 12.6 102400 71
2004-02-04 08:10:18 51°10.81 2°42.545 14.7 333 12.6 102400 71
2004-02-04 08:10:24 51°10.803 2°42.509 14.2 336 12.6 102400 71
2004-02-04 08:10:29 51°10.798 2°42.479 15.2 332 12.5 102400 71
2004-02-04 08:10:34 51°10.792 2°42.45 14.5 332 12.5 102400 71
2004-02-04 08:10:38 51°10.788 2°42.426 15.4 328 12.5 102400 71
2004-02-04 08:10:44 51°10.781 2°42.39 14.1 330 12.5 102400 71
2004-02-04 08:10:48 51°10.776 2°42.367 14.9 331 12.4 102400 71
2004-02-04 08:10:54 51°10.77 2°42.331 15.5 331 12.4 102400 71
2004-02-04 08:11:00 51°10.763 2°42.296 14.6 334 12.5 102400 71
2004-02-04 08:11:04 51°10.758 2°42.272 14.6 331 12.5 102400 71
2004-02-04 08:11:09 51°10.753 2°42.242 15.8 333 12.5 102400 72
2004-02-04 08:11:14 51°10.748 2°42.213 15.9 330 12.5 102400 72
2004-02-04 08:11:20 51°10.741 2°42.177 14.2 332 12.4 102390 72
2004-02-04 08:11:24 51°10.737 2°42.153 15.9 335 12.4 102390 72
2004-02-04 08:11:29 51°10.731 2°42.124 16.4 331 12.4 102390 72
2004-02-04 08:11:34 51°10.726 2°42.094 15.7 333 12.4 102390 72
2004-02-04 08:11:38 51°10.721 2°42.07 15.1 333 12.4 102390 72
2004-02-04 08:11:44 51°10.715 2°42.035 15.8 331 12.4 102390 72
2004-02-04 08:11:48 51°10.71 2°42.011 17 331 12.4 102390 72
2004-02-04 08:11:54 51°10.704 2°41.976 15 335 12.4 102390 72
2004-02-04 08:11:58 51°10.699 2°41.952 15 331 12.4 102390 72
2004-02-04 08:12:04 51°10.692 2°41.917 16.3 329 12.4 102390 72
2004-02-04 08:12:09 51°10.686 2°41.887 16.3 332 12.4 102390 72
2004-02-04 08:12:14 51°10.681 2°41.857 14.8 331 12.4 102390 72
2004-02-04 08:12:20 51°10.674 2°41.822 14.8 331 12.4 102390 72
2004-02-04 08:12:24 51°10.67 2°41.798 14.6 332 12.4 102390 72
2004-02-04 08:12:28 51°10.665 2°41.775 15.8 331 12.4 102390 72
2004-02-04 08:12:34 51°10.659 2°41.739 15.9 332 12.4 102390 72
2004-02-04 08:12:38 51°10.654 2°41.715 14 331 12.4 102340 72
2004-02-04 08:12:44 51°10.647 2°41.68 14.6 330 12.4 102340 72
2004-02-04 08:12:49 51°10.642 2°41.65 15.3 333 12.4 102340 72
2004-02-04 08:12:54 51°10.636 2°41.621 14.3 333 12.4 102340 72
2004-02-04 08:13:00 51°10.63 2°41.585 15.3 333 12.4 102390 72
2004-02-04 08:13:04 51°10.625 2°41.561 14.5 334 12.4 102390 72
2004-02-04 08:13:09 51°10.62 2°41.532 14.3 333 12.4 102380 72
2004-02-04 08:13:14 51°10.614 2°41.502 14.5 334 12.4 102380 72
2004-02-04 08:13:18 51°10.61 2°41.478 15.6 333 12.4 102390 72
2004-02-04 08:13:24 51°10.602 2°41.443 15 336 12.4 102390 72
2004-02-04 08:13:29 51°10.597 2°41.414 14.5 333 12.3 102390 72
2004-02-04 08:13:34 51°10.591 2°41.384 14.6 335 12.3 102390 72
2004-02-04 08:13:38 51°10.587 2°41.361 14.7 338 12.3 102390 72
2004-02-04 08:13:44 51°10.58 2°41.325 14.5 333 12.3 102390 72
2004-02-04 08:13:50 51°10.573 2°41.29 14.2 334 12.3 102390 72
2004-02-04 08:13:54 51°10.568 2°41.267 14.2 335 12.3 102390 72
2004-02-04 08:13:58 51°10.564 2°41.243 14.2 333 12.3 102390 72
2004-02-04 08:14:04 51°10.557 2°41.207 14.2 333 12.3 102390 72
2004-02-04 08:14:09 51°10.552 2°41.178 15.2 333 12.3 102390 72
2004-02-04 08:14:14 51°10.546 2°41.148 14.2 333 12.3 102390 72
2004-02-04 08:14:19 51°10.541 2°41.118 15 330 12.3 102390 72
2004-02-04 08:14:24 51°10.535 2°41.089 15.3 331 12.3 102390 72
2004-02-04 08:14:29 51°10.53 2°41.059 14.8 332 12.3 102390 72
2004-02-04 08:14:34 51°10.524 2°41.03 13.8 330 12.3 102390 72
2004-02-04 08:14:38 51°10.519 2°41.006 14.5 330 12.3 102390 72
2004-02-04 08:14:44 51°10.513 2°40.971 15.6 332 12.3 102390 72
2004-02-04 08:14:48 51°10.508 2°40.947 14.2 333 12.3 102390 72
2004-02-04 08:14:54 51°10.501 2°40.912 15 334 12.3 102390 72
2004-02-04 08:15:00 51°10.495 2°40.876 14.4 330 12.3 102390 72
2004-02-04 08:15:04 51°10.491 2°40.853 14.2 328 12.3 102390 72
2004-02-04 08:15:09 51°10.485 2°40.823 14.8 331 12.3 102390 72
2004-02-04 08:15:14 51°10.48 2°40.793 14 331 12.3 102390 72
2004-02-04 08:15:19 51°10.475 2°40.764 15.7 332 12.3 102390 72
2004-02-04 08:15:24 51°10.47 2°40.734 14.5 329 12.3 102390 72
2004-02-04 08:15:29 51°10.465 2°40.704 14.2 336 12.3 102390 72
2004-02-04 08:15:35 51°10.459 2°40.669 14.5 332 12.3 102390 72
2004-02-04 08:15:39 51°10.454 2°40.646 14.6 332 12.3 102390 73
2004-02-04 08:15:44 51°10.449 2°40.616 14.2 332 12.3 102390 73
2004-02-04 08:15:48 51°10.445 2°40.593 14 331 12.3 102390 73
2004-02-04 08:15:54 51°10.438 2°40.558 15.1 330 12.3 102390 73
2004-02-04 08:15:59 51°10.433 2°40.528 15.3 332 12.3 102390 73
2004-02-04 08:16:04 51°10.428 2°40.499 14.7 329 12.3 102390 73
2004-02-04 08:16:09 51°10.423 2°40.47 13.9 329 12.2 102390 73
2004-02-04 08:16:14 51°10.418 2°40.44 14.3 331 12.2 102390 73
2004-02-04 08:16:20 51°10.412 2°40.405 14.8 331 12.2 102390 73
2004-02-04 08:16:24 51°10.407 2°40.382 14.7 331 12.2 102390 73
2004-02-04 08:16:29 51°10.402 2°40.352 14.5 332 12.2 102390 73
2004-02-04 08:16:34 51°10.396 2°40.323 14.9 330 12.2 102390 73
2004-02-04 08:16:40 51°10.39 2°40.288 14.4 328 12.2 102390 73
2004-02-04 08:16:44 51°10.385 2°40.265 14.4 335 12.2 102390 73
2004-02-04 08:16:49 51°10.38 2°40.236 13.7 333 12.2 102400 73
2004-02-04 08:16:54 51°10.375 2°40.206 15 330 12.2 102400 73
2004-02-04 08:16:58 51°10.371 2°40.183 14.2 335 12.2 102400 73
2004-02-04 08:17:04 51°10.364 2°40.148 14.4 333 12.2 102400 73
2004-02-04 08:17:08 51°10.36 2°40.125 14.6 332 12.2 102400 73
2004-02-04 08:17:14 51°10.353 2°40.09 14.9 335 12.2 102400 73
2004-02-04 08:17:18 51°10.349 2°40.067 13.9 330 12.2 102400 73
2004-02-04 08:17:24 51°10.343 2°40.032 14.7 334 12.2 102400 73
2004-02-04 08:17:29 51°10.337 2°40.002 14 330 12.2 102410 73
2004-02-04 08:17:34 51°10.332 2°39.973 13.3 329 12.2 102410 73
2004-02-04 08:17:39 51°10.326 2°39.944 14 330 12.2 102400 73
2004-02-04 08:17:44 51°10.321 2°39.915 14 332 12.2 102400 73
2004-02-04 08:17:49 51°10.316 2°39.886 15.3 332 12.2 102400 73
2004-02-04 08:17:54 51°10.31 2°39.856 14.6 330 12.2 102400 73
2004-02-04 08:18:00 51°10.304 2°39.821 14.4 333 12.2 102400 73
2004-02-04 08:18:04 51°10.3 2°39.798 14.8 327 12.2 102400 73
2004-02-04 08:18:08 51°10.296 2°39.775 14.2 328 12.2 102410 73
2004-02-04 08:18:14 51°10.289 2°39.74 13.1 331 12.2 102410 73
2004-02-04 08:18:19 51°10.284 2°39.711 13.4 332 12.2 102400 73
2004-02-04 08:18:24 51°10.278 2°39.681 14.7 328 12.2 102400 73
2004-02-04 08:18:29 51°10.273 2°39.652 15.1 328 12.1 102400 73
2004-02-04 08:18:34 51°10.268 2°39.623 14.8 329 12.1 102400 73
2004-02-04 08:18:38 51°10.264 2°39.6 14 327 12.1 102400 73
2004-02-04 08:18:44 51°10.257 2°39.564 15 330 12.1 102400 73
2004-02-04 08:18:48 51°10.253 2°39.541 12.9 327 12.1 102400 73
2004-02-04 08:18:54 51°10.247 2°39.506 13.8 329 12.1 102400 73
2004-02-04 08:19:00 51°10.24 2°39.471 14 329 12.1 102390 73
2004-02-04 08:19:04 51°10.236 2°39.447 13.9 328 12.1 102390 73
2004-02-04 08:19:09 51°10.231 2°39.418 13.8 331 12.1 102400 73
2004-02-04 08:19:14 51°10.225 2°39.389 13.5 331 12.1 102400 73
2004-02-04 08:19:20 51°10.219 2°39.353 13.3 328 12.1 102410 73
2004-02-04 08:19:24 51°10.215 2°39.33 13.8 329 12.1 102410 73
2004-02-04 08:19:29 51°10.209 2°39.301 14 325 12.1 102400 73
2004-02-04 08:19:34 51°10.204 2°39.271 13.4 331 12.1 102400 73
2004-02-04 08:19:38 51°10.2 2°39.248 14.2 327 12.1 102400 73
2004-02-04 08:19:44 51°10.194 2°39.213 13.9 331 12.1 102400 73
2004-02-04 08:19:48 51°10.189 2°39.189 15 331 12.1 102400 73
2004-02-04 08:19:54 51°10.183 2°39.154 14.7 329 12.1 102400 73
2004-02-04 08:19:58 51°10.179 2°39.13 13.7 328 12.1 102400 73
2004-02-04 08:20:04 51°10.173 2°39.095 14.7 331 12.1 102400 73
2004-02-04 08:20:09 51°10.167 2°39.066 14.8 329 12.1 102400 73
2004-02-04 08:20:14 51°10.162 2°39.036 14.1 328 12.1 102400 73
2004-02-04 08:20:18 51°10.157 2°39.013 14.1 332 12.1 102400 73
2004-02-04 08:20:24 51°10.151 2°38.978 13.2 330 12.1 102400 73
2004-02-04 08:20:28 51°10.147 2°38.954 13.7 331 12.1 102400 74
2004-02-04 08:20:34 51°10.14 2°38.919 14.2 331 12.1 102400 74
2004-02-04 08:20:38 51°10.136 2°38.895 13.7 330 12.1 102400 73
2004-02-04 08:20:44 51°10.13 2°38.86 14.3 332 12.1 102400 73
2004-02-04 08:20:49 51°10.125 2°38.831 13.4 330 12.1 102410 73
2004-02-04 08:20:54 51°10.119 2°38.801 13.7 331 12.1 102410 73
2004-02-04 08:21:00 51°10.113 2°38.766 13.8 332 12.1 102410 73
2004-02-04 08:21:04 51°10.109 2°38.743 14.2 331 12.1 102410 73
2004-02-04 08:21:08 51°10.105 2°38.719 14.4 333 12.1 102400 73
2004-02-04 08:21:14 51°10.099 2°38.684 14 327 12.1 102400 73
2004-02-04 08:21:20 51°10.092 2°38.648 14.8 326 12.1 102410 73
2004-02-04 08:21:24 51°10.088 2°38.625 14.2 329 12.1 102410 73
2004-02-04 08:21:29 51°10.083 2°38.595 14 331 12.1 102400 73
2004-02-04 08:21:34 51°10.077 2°38.566 15.1 327 12.1 102400 73
2004-02-04 08:21:39 51°10.072 2°38.537 14.7 329 12.1 102410 73
2004-02-04 08:21:44 51°10.067 2°38.507 13.1 332 12.1 102410 73
2004-02-04 08:21:49 51°10.062 2°38.478 13.3 330 12.1 102410 73
2004-02-04 08:21:54 51°10.056 2°38.448 13.7 331 12.1 102410 73
2004-02-04 08:21:59 51°10.051 2°38.419 14.1 331 12.1 102410 73
2004-02-04 08:22:04 51°10.046 2°38.39 13.5 331 12.1 102410 73
2004-02-04 08:22:09 51°10.04 2°38.36 14.1 330 12.1 102410 73
2004-02-04 08:22:14 51°10.035 2°38.331 13.4 328 12.1 102410 73
2004-02-04 08:22:18 51°10.031 2°38.307 13.3 330 12.1 102410 73
2004-02-04 08:22:24 51°10.025 2°38.272 13.6 331 12.1 102410 73
2004-02-04 08:22:29 51°10.02 2°38.243 14.1 330 12.1 102400 73
2004-02-04 08:22:34 51°10.014 2°38.213 13.6 332 12.1 102400 73
2004-02-04 08:22:38 51°10.01 2°38.19 14.8 330 12.1 102410 73
2004-02-04 08:22:44 51°10.004 2°38.155 12.9 332 12.1 102410 73
2004-02-04 08:22:49 51°9.998 2°38.125 12 335 12.1 102400 73
2004-02-04 08:22:54 51°9.993 2°38.096 13.9 329 12.1 102400 73
2004-02-04 08:23:00 51°9.987 2°38.061 12.9 326 12 102400 73
2004-02-04 08:23:04 51°9.983 2°38.037 13.2 330 12 102400 73
2004-02-04 08:23:09 51°9.977 2°38.007 12.7 330 12.1 102400 74
2004-02-04 08:23:14 51°9.972 2°37.978 13.7 331 12.1 102400 74
2004-02-04 08:23:20 51°9.966 2°37.943 13.9 330 12.1 102400 73
2004-02-04 08:23:24 51°9.961 2°37.919 13.8 330 12.1 102400 73
2004-02-04 08:23:29 51°9.956 2°37.89 13.7 326 12.1 102400 73
2004-02-04 08:23:34 51°9.95 2°37.861 14.3 327 12.1 102400 73
2004-02-04 08:23:40 51°9.944 2°37.825 13.8 326 12 102400 73
2004-02-04 08:23:44 51°9.94 2°37.801 14 329 12 102400 73
2004-02-04 08:23:49 51°9.935 2°37.772 14.3 330 12 102400 74
2004-02-04 08:23:54 51°9.93 2°37.743 14 330 12 102400 74
2004-02-04 08:23:59 51°9.924 2°37.713 12.9 329 12 102400 74
2004-02-04 08:24:04 51°9.919 2°37.684 14.1 330 12 102400 74
2004-02-04 08:24:10 51°9.912 2°37.649 14.2 328 12 102400 74
2004-02-04 08:24:14 51°9.908 2°37.625 14.2 331 12 102400 74
2004-02-04 08:24:20 51°9.902 2°37.59 13.7 329 12 102400 74
2004-02-04 08:24:24 51°9.897 2°37.567 13.4 330 12 102400 74
2004-02-04 08:24:29 51°9.891 2°37.538 14.5 330 12 102420 74
2004-02-04 08:24:34 51°9.885 2°37.509 14.1 331 12 102420 74
2004-02-04 08:24:40 51°9.878 2°37.474 13.8 329 11.9 102410 74
2004-02-04 08:24:44 51°9.874 2°37.451 13.4 331 11.9 102410 74
2004-02-04 08:24:49 51°9.867 2°37.422 12 331 11.9 102400 74
2004-02-04 08:24:54 51°9.861 2°37.393 13.4 333 11.9 102400 74
2004-02-04 08:24:58 51°9.857 2°37.369 12.4 333 11.9 102400 74
2004-02-04 08:25:04 51°9.85 2°37.334 12.3 332 11.9 102400 74
2004-02-04 08:25:09 51°9.844 2°37.305 12.6 333 11.9 102410 74
2004-02-04 08:25:14 51°9.838 2°37.276 13.2 333 11.9 102410 74
2004-02-04 08:25:18 51°9.834 2°37.253 13.2 333 11.9 102400 74
2004-02-04 08:25:24 51°9.827 2°37.218 14.1 333 11.9 102400 74
2004-02-04 08:25:29 51°9.821 2°37.189 13.2 333 11.9 102410 74
2004-02-04 08:25:34 51°9.815 2°37.16 12.8 332 11.9 102410 74
2004-02-04 08:25:38 51°9.81 2°37.136 11.8 335 11.8 102410 74
2004-02-04 08:25:44 51°9.803 2°37.101 12.7 334 11.8 102410 74
2004-02-04 08:25:48 51°9.798 2°37.078 13.1 333 11.8 102410 74
2004-02-04 08:25:54 51°9.791 2°37.043 13.7 334 11.8 102410 74
2004-02-04 08:26:00 51°9.784 2°37.008 12 332 11.8 102400 75
2004-02-04 08:26:04 51°9.779 2°36.985 12.7 331 11.8 102400 75
2004-02-04 08:26:09 51°9.774 2°36.956 12.2 332 11.8 102410 75
2004-02-04 08:26:14 51°9.768 2°36.927 12.5 332 11.8 102410 75
2004-02-04 08:26:20 51°9.761 2°36.892 12.9 331 11.7 102410 75
2004-02-04 08:26:24 51°9.756 2°36.868 12.3 332 11.7 102410 75
2004-02-04 08:26:29 51°9.751 2°36.839 12.9 333 11.7 102400 75
2004-02-04 08:26:34 51°9.744 2°36.81 12.3 334 11.7 102400 75
2004-02-04 08:26:38 51°9.74 2°36.787 13.2 334 11.7 102400 75
2004-02-04 08:26:44 51°9.732 2°36.752 12.2 334 11.7 102400 75
2004-02-04 08:26:49 51°9.727 2°36.723 11.9 333 11.7 102410 75
2004-02-04 08:26:54 51°9.721 2°36.694 12.6 330 11.7 102410 75
2004-02-04 08:27:00 51°9.714 2°36.659 12.6 333 11.7 102400 75
2004-02-04 08:27:04 51°9.709 2°36.635 11.8 336 11.7 102400 75
2004-02-04 08:27:09 51°9.703 2°36.606 12.1 333 11.7 102400 75
2004-02-04 08:27:14 51°9.697 2°36.577 11.4 336 11.7 102400 75
2004-02-04 08:27:18 51°9.692 2°36.554 11.6 333 11.7 102400 75
2004-02-04 08:27:24 51°9.685 2°36.519 12.1 334 11.7 102400 75
2004-02-04 08:27:29 51°9.679 2°36.489 11.2 334 11.7 102400 75
2004-02-04 08:27:34 51°9.673 2°36.46 12.7 335 11.7 102400 75
2004-02-04 08:27:40 51°9.666 2°36.426 12 334 11.6 102400 75
2004-02-04 08:27:44 51°9.661 2°36.402 11.5 336 11.6 102400 75
2004-02-04 08:27:49 51°9.655 2°36.374 12.3 336 11.6 102400 75
2004-02-04 08:27:54 51°9.649 2°36.345 12.2 335 11.6 102400 75
2004-02-04 08:28:00 51°9.642 2°36.31 12.6 337 11.6 102400 76
2004-02-04 08:28:04 51°9.637 2°36.286 12.2 337 11.6 102400 76
2004-02-04 08:28:09 51°9.632 2°36.257 12.5 338 11.6 102410 76
2004-02-04 08:28:14 51°9.626 2°36.228 12.1 337 11.6 102410 76
2004-02-04 08:28:19 51°9.62 2°36.199 11.7 338 11.6 102410 76
2004-02-04 08:28:24 51°9.615 2°36.17 12.1 337 11.6 102410 76
2004-02-04 08:28:29 51°9.609 2°36.141 12.7 335 11.6 102400 76
2004-02-04 08:28:34 51°9.603 2°36.112 13.1 339 11.6 102400 76
2004-02-04 08:28:38 51°9.598 2°36.088 12.3 341 11.6 102410 76
2004-02-04 08:28:44 51°9.591 2°36.054 13.3 337 11.6 102410 76
2004-02-04 08:28:50 51°9.584 2°36.019 13.2 336 11.5 102410 76
2004-02-04 08:28:54 51°9.579 2°35.996 13.1 337 11.5 102410 76
2004-02-04 08:28:59 51°9.573 2°35.967 13.3 338 11.5 102410 76
2004-02-04 08:29:04 51°9.567 2°35.938 12.6 338 11.5 102410 76
2004-02-04 08:29:09 51°9.562 2°35.909 12.8 340 11.5 102410 76
2004-02-04 08:29:14 51°9.556 2°35.88 13.7 340 11.5 102410 76
2004-02-04 08:29:20 51°9.549 2°35.846 13.2 337 11.5 102410 76
2004-02-04 08:29:24 51°9.545 2°35.824 13.9 335 11.5 102410 76
2004-02-04 08:29:29 51°9.54 2°35.798 14.4 336 11.5 102400 76
2004-02-04 08:29:34 51°9.534 2°35.773 12.5 335 11.5 102400 76
2004-02-04 08:29:40 51°9.529 2°35.745 11.8 336 11.5 102400 76
2004-02-04 08:29:44 51°9.525 2°35.727 12.4 334 11.5 102400 76
2004-02-04 08:29:49 51°9.52 2°35.706 12.5 335 11.5 102410 75
2004-02-04 08:29:54 51°9.515 2°35.687 12.4 335 11.5 102410 75
2004-02-04 08:30:00 51°9.509 2°35.664 11.7 337 11.5 102400 75
2004-02-04 08:30:04 51°9.505 2°35.649 12.3 336 11.5 102400 75
2004-02-04 08:30:09 51°9.5 2°35.632 11.5 332 11.5 102410 75
2004-02-04 08:30:14 51°9.496 2°35.615 9.8 327 11.5 102410 75
2004-02-04 08:30:18 51°9.493 2°35.602 10.4 323 11.6 102410 75
2004-02-04 08:30:24 51°9.49 2°35.584 10.7 319 11.6 102410 75
2004-02-04 08:30:29 51°9.488 2°35.569 11.1 319 11.6 102400 75
2004-02-04 08:30:34 51°9.486 2°35.555 9.9 317 11.6 102400 75
2004-02-04 08:30:38 51°9.485 2°35.544 9.5 227 11.6 102420 75
2004-02-04 08:30:44 51°9.484 2°35.529 10.5 314 11.6 102420 75
2004-02-04 08:30:49 51°9.484 2°35.517 10.2 311 11.7 102410 74
2004-02-04 08:30:54 51°9.484 2°35.505 9.2 308 11.7 102410 74
2004-02-04 08:31:00 51°9.484 2°35.492 9.2 304 11.7 102410 74
2004-02-04 08:31:04 51°9.485 2°35.483 9.3 304 11.7 102410 74
2004-02-04 08:31:09 51°9.486 2°35.473 9.1 296 11.7 102420 74
2004-02-04 08:31:14 51°9.487 2°35.463 9 296 11.7 102420 74
2004-02-04 08:31:20 51°9.489 2°35.453 9.6 292 11.7 102420 74
2004-02-04 08:31:24 51°9.489 2°35.446 9.6 288 11.7 102420 74
2004-02-04 08:31:29 51°9.491 2°35.439 8.5 288 11.7 102420 74
2004-02-04 08:31:34 51°9.492 2°35.433 8.9 284 11.7 102420 74
2004-02-04 08:31:40 51°9.494 2°35.427 8.6 277 11.7 102420 73
2004-02-04 08:31:44 51°9.495 2°35.423 8.7 274 11.7 102420 73
2004-02-04 08:31:49 51°9.496 2°35.418 7.6 273 11.8 102420 73
2004-02-04 08:31:54 51°9.498 2°35.412 8.1 271 11.8 102420 73
2004-02-04 08:31:58 51°9.5 2°35.408 7.4 274 11.8 102420 73
2004-02-04 08:32:04 51°9.502 2°35.402 8.4 276 11.8 102420 73
2004-02-04 08:32:09 51°9.504 2°35.396 7.8 274 11.7 102420 73
2004-02-04 08:32:14 51°9.507 2°35.391 9 273 11.7 102420 73
2004-02-04 08:32:18 51°9.508 2°35.386 8.9 274 11.8 102430 73
2004-02-04 08:32:24 51°9.511 2°35.38 8.8 275 11.8 102430 73
2004-02-04 08:32:29 51°9.513 2°35.374 8.2 269 11.8 102430 73
2004-02-04 08:32:34 51°9.516 2°35.369 9.4 271 11.8 102430 73
2004-02-04 08:32:38 51°9.518 2°35.365 8.6 268 11.8 102430 73
2004-02-04 08:32:44 51°9.521 2°35.358 8.1 266 11.8 102430 73
2004-02-04 08:32:49 51°9.524 2°35.353 8.1 267 11.7 102430 73
2004-02-04 08:32:54 51°9.526 2°35.348 8.4 264 11.7 102430 73
2004-02-04 08:33:00 51°9.53 2°35.342 8 261 11.8 102430 73
2004-02-04 08:33:04 51°9.532 2°35.338 5.9 257 11.8 102430 73
2004-02-04 08:33:09 51°9.535 2°35.333 6.5 258 11.8 102430 73
2004-02-04 08:33:14 51°9.538 2°35.329 5.8 256 11.8 102430 73
2004-02-04 08:33:18 51°9.541 2°35.325 5.8 256 11.8 102430 73
2004-02-04 08:33:24 51°9.545 2°35.32 4.1 255 11.8 102430 73
2004-02-04 08:33:29 51°9.548 2°35.316 5 249 11.8 102430 73
2004-02-04 08:33:34 51°9.552 2°35.312 6.4 246 11.8 102430 73
2004-02-04 08:33:40 51°9.556 2°35.308 6.5 243 11.8 102420 73
2004-02-04 08:33:44 51°9.559 2°35.306 5.2 240 11.8 102420 73
2004-02-04 08:33:48 51°9.562 2°35.303 5.6 245 11.8 102420 72
2004-02-04 08:33:54 51°9.567 2°35.299 7.1 241 11.8 102420 72
2004-02-04 08:34:00 51°9.572 2°35.296 6.3 241 11.8 102420 72
2004-02-04 08:34:04 51°9.575 2°35.293 5.6 239 11.8 102420 72
2004-02-04 08:34:09 51°9.579 2°35.291 5.9 230 11.8 102430 72
2004-02-04 08:34:14 51°9.583 2°35.288 5.9 229 11.8 102430 72
2004-02-04 08:34:18 51°9.586 2°35.286 6.9 230 11.8 102430 72
2004-02-04 08:34:24 51°9.591 2°35.284 6.3 232 11.8 102430 72
2004-02-04 08:34:29 51°9.595 2°35.282 7.2 226 11.8 102430 72
2004-02-04 08:34:34 51°9.6 2°35.28 5.8 229 11.8 102430 72
2004-02-04 08:34:40 51°9.605 2°35.278 5.8 227 11.8 102430 72
2004-02-04 08:34:44 51°9.608 2°35.277 5.2 223 11.8 102430 72
2004-02-04 08:34:49 51°9.612 2°35.276 5.6 228 11.8 102430 72
2004-02-04 08:34:54 51°9.617 2°35.275 6.4 218 11.8 102430 72
2004-02-04 08:35:00 51°9.622 2°35.274 6.7 215 11.8 102430 72
2004-02-04 08:35:04 51°9.625 2°35.273 6.4 219 11.8 102430 72
2004-02-04 08:35:09 51°9.63 2°35.273 6.3 219 11.8 102430 72
2004-02-04 08:35:14 51°9.634 2°35.272 6.8 214 11.8 102430 72
2004-02-04 08:35:19 51°9.638 2°35.271 5.6 213 11.8 102430 72
2004-02-04 08:35:24 51°9.643 2°35.271 7.2 210 11.8 102430 72
2004-02-04 08:35:29 51°9.647 2°35.271 5.9 206 11.8 102430 72
2004-02-04 08:35:34 51°9.652 2°35.271 6.3 206 11.8 102430 72
2004-02-04 08:35:38 51°9.655 2°35.272 6.5 207 11.8 102430 72
2004-02-04 08:35:44 51°9.66 2°35.272 5.3 207 11.8 102430 72
2004-02-04 08:35:49 51°9.665 2°35.273 5.3 198 11.8 102430 73
2004-02-04 08:35:54 51°9.669 2°35.274 5.5 198 11.8 102430 73
2004-02-04 08:35:59 51°9.673 2°35.275 5.2 189 11.8 102430 72
2004-02-04 08:36:04 51°9.678 2°35.276 4.4 190 11.8 102430 72
2004-02-04 08:36:09 51°9.682 2°35.278 3.9 193 11.9 102420 72
2004-02-04 08:36:14 51°9.686 2°35.279 4.1 194 11.9 102420 72
2004-02-04 08:36:19 51°9.691 2°35.281 3.9 195 11.9 102430 72
2004-02-04 08:36:24 51°9.695 2°35.283 4.3 183 11.9 102430 72
2004-02-04 08:36:29 51°9.699 2°35.285 5.1 177 11.9 102430 73
2004-02-04 08:36:34 51°9.703 2°35.287 4.6 184 11.9 102430 73
2004-02-04 08:36:39 51°9.708 2°35.289 5.4 179 12 102430 73
2004-02-04 08:36:44 51°9.712 2°35.292 6 167 12 102430 73
2004-02-04 08:36:49 51°9.716 2°35.294 6.2 172 12 102430 73
2004-02-04 08:36:54 51°9.72 2°35.297 6.4 171 12 102430 73
2004-02-04 08:36:59 51°9.724 2°35.3 6.9 170 12.2 102430 72
2004-02-04 08:37:04 51°9.728 2°35.303 6.9 167 12.2 102430 72
2004-02-04 08:37:09 51°9.732 2°35.307 6.8 165 12.2 102420 71
2004-02-04 08:37:14 51°9.736 2°35.31 6.9 161 12.2 102420 71
2004-02-04 08:37:19 51°9.74 2°35.314 7.9 160 12.2 102430 71
2004-02-04 08:37:24 51°9.743 2°35.317 6.9 162 12.2 102430 71
2004-02-04 08:37:29 51°9.747 2°35.321 7 158 12.2 102420 70
2004-02-04 08:37:34 51°9.751 2°35.325 6.7 153 12.2 102420 70
2004-02-04 08:37:38 51°9.754 2°35.329 7.4 153 12.2 102430 70
2004-02-04 08:37:44 51°9.758 2°35.334 7 152 12.2 102430 70
2004-02-04 08:37:49 51°9.761 2°35.338 7.1 151 12.3 102430 70
2004-02-04 08:37:54 51°9.765 2°35.343 7.1 147 12.3 102430 70
2004-02-04 08:38:00 51°9.769 2°35.348 6.9 144 12.3 102420 70
2004-02-04 08:38:04 51°9.771 2°35.352 7.2 142 12.3 102420 70
2004-02-04 08:38:10 51°9.775 2°35.358 7.5 143 12.3 102420 70
2004-02-04 08:38:14 51°9.778 2°35.362 7.6 141 12.3 102420 70
2004-02-04 08:38:20 51°9.781 2°35.368 8 226 12.3 102420 70
2004-02-04 08:38:24 51°9.784 2°35.372 8.2 138 12.3 102420 70
2004-02-04 08:38:29 51°9.787 2°35.378 8.1 140 12.3 102420 70